Time,TemperatureF,DewpointF,PressureIn,WindDirection,WindDirectionDegrees,WindSpeedMPH,WindSpeedGustMPH,Humidity,HourlyPrecipIn,Conditions,Clouds,dailyrainin,SoftwareType,DateUTC
2013-04-20 00:02:00,53.4,22.7,30.06,West,264,0.0,0.0,30,0.00,,,0.00,Wunderground v.1.15,2013-04-20 07:02:00,
2013-04-20 00:08:00,52.8,23.7,30.07,WSW,253,0.0,0.0,32,0.00,,,0.00,Wunderground v.1.15,2013-04-20 07:08:00,
2013-04-20 00:13:00,52.2,24.6,30.07,WSW,258,0.0,2.0,34,0.00,,,0.00,Wunderground v.1.15,2013-04-20 07:13:00,
2013-04-20 00:18:00,51.6,26.1,30.07,West,259,0.0,2.0,37,0.00,,,0.00,Wunderground v.1.15,2013-04-20 07:18:00,
2013-04-20 00:24:00,51.0,26.9,30.07,West,264,0.0,0.0,39,0.00,,,0.00,Wunderground v.1.15,2013-04-20 07:24:00,
2013-04-20 00:29:00,51.0,27.5,30.07,West,262,0.0,0.0,40,0.00,,,0.00,Wunderground v.1.15,2013-04-20 07:29:00,
2013-04-20 00:35:00,51.1,27.6,30.07,WSW,255,0.0,0.0,40,0.00,,,0.00,Wunderground v.1.15,2013-04-20 07:35:00,
2013-04-20 00:41:00,50.7,27.2,30.07,West,271,0.0,0.0,40,0.00,,,0.00,Wunderground v.1.15,2013-04-20 07:41:00,
2013-04-20 00:47:00,50.9,26.8,30.07,West,265,0.0,0.0,39,0.00,,,0.00,Wunderground v.1.15,2013-04-20 07:47:00,
2013-04-20 00:52:00,50.7,26.6,30.08,WNW,293,0.0,0.0,39,0.00,,,0.00,Wunderground v.1.15,2013-04-20 07:52:00,
2013-04-20 00:58:00,50.4,26.3,30.07,WNW,300,0.0,0.0,39,0.00,,,0.00,Wunderground v.1.15,2013-04-20 07:58:00,
2013-04-20 01:03:00,50.4,26.3,30.07,West,266,0.0,0.0,39,0.00,,,0.00,Wunderground v.1.15,2013-04-20 08:03:00,
2013-04-20 01:09:00,50.2,26.2,30.07,WSW,257,0.0,0.0,39,0.00,,,0.00,Wunderground v.1.15,2013-04-20 08:09:00,
2013-04-20 01:15:00,50.0,26.0,30.08,West,277,0.0,0.0,39,0.00,,,0.00,Wunderground v.1.15,2013-04-20 08:15:00,
2013-04-20 01:20:00,49.4,26.1,30.08,West,269,0.0,0.0,40,0.00,,,0.00,Wunderground v.1.15,2013-04-20 08:20:00,
2013-04-20 01:26:00,48.7,25.4,30.08,West,269,0.0,0.0,40,0.00,,,0.00,Wunderground v.1.15,2013-04-20 08:26:00,
2013-04-20 01:32:00,48.4,25.8,30.08,West,269,0.0,0.0,41,0.00,,,0.00,Wunderground v.1.15,2013-04-20 08:32:00,
2013-04-20 01:37:00,48.7,26.0,30.08,WNW,285,0.0,0.0,41,0.00,,,0.00,Wunderground v.1.15,2013-04-20 08:37:00,
2013-04-20 01:43:00,48.7,26.0,30.08,WNW,288,0.0,0.0,41,0.00,,,0.00,Wunderground v.1.15,2013-04-20 08:43:00,
2013-04-20 01:49:00,48.4,25.8,30.07,WNW,289,0.0,0.0,41,0.00,,,0.00,Wunderground v.1.15,2013-04-20 08:49:00,
2013-04-20 01:55:00,48.1,26.1,30.07,West,276,0.0,0.0,42,0.00,,,0.00,Wunderground v.1.15,2013-04-20 08:55:00,
2013-04-20 02:00:00,48.2,26.2,30.07,NW,309,0.0,0.0,42,0.00,,,0.00,Wunderground v.1.15,2013-04-20 09:00:00,
2013-04-20 02:06:00,48.3,26.2,30.07,NW,323,0.0,0.0,42,0.00,,,0.00,Wunderground v.1.15,2013-04-20 09:06:00,
2013-04-20 02:12:00,48.0,26.0,30.07,WNW,290,0.0,0.0,42,0.00,,,0.00,Wunderground v.1.15,2013-04-20 09:12:00,
2013-04-20 02:18:00,47.7,25.7,30.07,NW,304,0.0,0.0,42,0.00,,,0.00,Wunderground v.1.15,2013-04-20 09:18:00,
2013-04-20 02:24:00,47.1,25.7,30.07,NW,304,0.0,0.0,43,0.00,,,0.00,Wunderground v.1.15,2013-04-20 09:24:00,
2013-04-20 02:29:00,47.3,25.9,30.07,WNW,289,0.0,0.0,43,0.00,,,0.00,Wunderground v.1.15,2013-04-20 09:29:00,
2013-04-20 02:35:00,47.7,26.3,30.07,NW,309,0.0,0.0,43,0.00,,,0.00,Wunderground v.1.15,2013-04-20 09:35:00,
2013-04-20 02:41:00,47.3,26.5,30.07,NW,310,0.0,0.0,44,0.00,,,0.00,Wunderground v.1.15,2013-04-20 09:41:00,
2013-04-20 02:47:00,47.6,26.2,30.07,WNW,303,0.0,0.0,43,0.00,,,0.00,Wunderground v.1.15,2013-04-20 09:47:00,
2013-04-20 02:53:00,47.6,26.2,30.07,NW,316,0.0,0.0,43,0.00,,,0.00,Wunderground v.1.15,2013-04-20 09:53:00,
2013-04-20 02:58:00,47.0,25.6,30.07,WNW,297,0.0,0.0,43,0.00,,,0.00,Wunderground v.1.15,2013-04-20 09:58:00,
2013-04-20 03:04:00,46.3,25.6,30.07,NW,322,0.0,0.0,44,0.00,,,0.00,Wunderground v.1.15,2013-04-20 10:04:00,
2013-04-20 03:10:00,45.8,25.6,30.08,NW,311,0.0,0.0,45,0.00,,,0.00,Wunderground v.1.15,2013-04-20 10:10:00,
2013-04-20 03:15:00,45.7,26.1,30.08,NW,324,0.0,0.0,46,0.00,,,0.00,Wunderground v.1.15,2013-04-20 10:15:00,
2013-04-20 03:21:00,46.2,26.0,30.08,WNW,300,0.0,0.0,45,0.00,,,0.00,Wunderground v.1.15,2013-04-20 10:21:00,
2013-04-20 03:27:00,46.1,25.9,30.08,NW,326,0.0,0.0,45,0.00,,,0.00,Wunderground v.1.15,2013-04-20 10:27:00,
2013-04-20 03:32:00,45.5,25.9,30.08,NW,323,0.0,0.0,46,0.00,,,0.00,Wunderground v.1.15,2013-04-20 10:32:00,
2013-04-20 03:38:00,45.1,26.1,30.08,NW,312,2.0,6.0,47,0.00,,,0.00,Wunderground v.1.15,2013-04-20 10:38:00,
2013-04-20 03:44:00,44.8,25.8,30.08,NW,309,5.0,7.0,47,0.00,,,0.00,Wunderground v.1.15,2013-04-20 10:44:00,
2013-04-20 03:50:00,44.3,25.3,30.07,NW,317,6.0,6.0,47,0.00,,,0.00,Wunderground v.1.15,2013-04-20 10:50:00,
2013-04-20 03:56:00,43.8,25.4,30.07,WNW,291,4.0,6.0,48,0.00,,,0.00,Wunderground v.1.15,2013-04-20 10:56:00,
2013-04-20 04:01:00,43.4,25.5,30.07,WNW,290,3.0,3.0,49,0.00,,,0.00,Wunderground v.1.15,2013-04-20 11:01:00,
2013-04-20 04:07:00,43.4,26.0,30.08,NNW,335,1.0,3.0,50,0.00,,,0.00,Wunderground v.1.15,2013-04-20 11:07:00,
2013-04-20 04:13:00,43.1,26.2,30.08,NW,318,1.0,5.0,51,0.00,,,0.00,Wunderground v.1.15,2013-04-20 11:13:00,
2013-04-20 04:18:00,43.3,26.4,30.08,NW,312,1.0,5.0,51,0.00,,,0.00,Wunderground v.1.15,2013-04-20 11:18:00,
2013-04-20 04:24:00,43.0,26.6,30.08,NW,323,0.0,1.0,52,0.00,,,0.00,Wunderground v.1.15,2013-04-20 11:24:00,
2013-04-20 04:30:00,42.6,26.2,30.08,NNW,341,0.0,0.0,52,0.00,,,0.00,Wunderground v.1.15,2013-04-20 11:30:00,
2013-04-20 04:35:00,42.0,26.5,30.07,WNW,295,0.0,0.0,54,0.00,,,0.00,Wunderground v.1.15,2013-04-20 11:35:00,
2013-04-20 04:41:00,42.2,26.3,30.07,WNW,288,0.0,0.0,53,0.00,,,0.00,Wunderground v.1.15,2013-04-20 11:41:00,
2013-04-20 04:47:00,41.9,26.4,30.07,WSW,249,0.0,0.0,54,0.00,,,0.00,Wunderground v.1.15,2013-04-20 11:47:00,
2013-04-20 04:53:00,41.5,26.1,30.08,WNW,283,0.0,0.0,54,0.00,,,0.00,Wunderground v.1.15,2013-04-20 11:53:00,
2013-04-20 04:58:00,41.2,26.2,30.08,WNW,300,0.0,0.0,55,0.00,,,0.00,Wunderground v.1.15,2013-04-20 11:58:00,
2013-04-20 05:04:00,41.2,26.7,30.08,WNW,285,0.0,0.0,56,0.00,,,0.00,Wunderground v.1.15,2013-04-20 12:04:00,
2013-04-20 05:09:00,40.8,26.3,30.08,West,262,0.0,0.0,56,0.00,,,0.00,Wunderground v.1.15,2013-04-20 12:09:00,
2013-04-20 05:15:00,40.1,26.1,30.08,SW,219,0.0,0.0,57,0.00,,,0.00,Wunderground v.1.15,2013-04-20 12:15:00,
2013-04-20 05:20:00,39.7,26.5,30.08,SW,236,0.0,0.0,59,0.00,,,0.00,Wunderground v.1.15,2013-04-20 12:20:00,
2013-04-20 05:26:00,40.9,27.7,30.08,West,272,0.0,0.0,59,0.00,,,0.00,Wunderground v.1.15,2013-04-20 12:26:00,
2013-04-20 05:32:00,41.2,27.1,30.08,WNW,303,0.0,0.0,57,0.00,,,0.00,Wunderground v.1.15,2013-04-20 12:32:00,
2013-04-20 05:38:00,40.3,26.7,30.08,WNW,283,0.0,0.0,58,0.00,,,0.00,Wunderground v.1.15,2013-04-20 12:38:00,
2013-04-20 05:44:00,39.7,26.5,30.08,SSW,199,0.0,0.0,59,0.00,,,0.00,Wunderground v.1.15,2013-04-20 12:44:00,
2013-04-20 05:49:00,39.8,27.4,30.09,SSW,206,0.0,0.0,61,0.00,,,0.00,Wunderground v.1.15,2013-04-20 12:49:00,
2013-04-20 05:55:00,40.0,27.2,30.09,WSW,255,0.0,0.0,60,0.00,,,0.00,Wunderground v.1.15,2013-04-20 12:55:00,
2013-04-20 06:00:00,40.1,27.3,30.09,NW,304,0.0,0.0,60,0.00,,,0.00,Wunderground v.1.15,2013-04-20 13:00:00,
2013-04-20 06:05:00,40.3,27.5,30.09,WSW,258,0.0,0.0,60,0.00,,,0.00,Wunderground v.1.15,2013-04-20 13:05:00,
2013-04-20 06:11:00,40.4,27.6,30.09,WSW,256,0.0,0.0,60,0.00,,,0.00,Wunderground v.1.15,2013-04-20 13:11:00,
2013-04-20 06:17:00,40.3,27.5,30.09,WNW,285,0.0,0.0,60,0.00,,,0.00,Wunderground v.1.15,2013-04-20 13:17:00,
2013-04-20 06:23:00,40.4,27.6,30.10,West,261,0.0,0.0,60,0.00,,,0.00,Wunderground v.1.15,2013-04-20 13:23:00,
2013-04-20 06:28:00,40.7,27.9,30.09,West,269,0.0,0.0,60,0.00,,,0.00,Wunderground v.1.15,2013-04-20 13:28:00,
2013-04-20 06:34:00,41.1,27.9,30.10,WNW,284,0.0,0.0,59,0.00,,,0.00,Wunderground v.1.15,2013-04-20 13:34:00,
2013-04-20 06:40:00,41.4,28.1,30.10,WSW,255,0.0,0.0,59,0.00,,,0.00,Wunderground v.1.15,2013-04-20 13:40:00,
2013-04-20 06:45:00,42.0,28.3,30.10,WSW,249,0.0,0.0,58,0.00,,,0.00,Wunderground v.1.15,2013-04-20 13:45:00,
2013-04-20 06:51:00,42.6,28.4,30.10,NW,304,0.0,0.0,57,0.00,,,0.00,Wunderground v.1.15,2013-04-20 13:51:00,
2013-04-20 06:57:00,43.1,28.5,30.10,West,266,0.0,0.0,56,0.00,,,0.00,Wunderground v.1.15,2013-04-20 13:57:00,
2013-04-20 07:02:00,43.6,28.5,30.10,WNW,288,0.0,0.0,55,0.00,,,0.00,Wunderground v.1.15,2013-04-20 14:02:00,
2013-04-20 07:08:00,44.1,28.5,30.11,WSW,243,0.0,0.0,54,0.00,,,0.00,Wunderground v.1.15,2013-04-20 14:08:00,
2013-04-20 07:14:00,44.9,28.3,30.11,WNW,289,0.0,0.0,52,0.00,,,0.00,Wunderground v.1.15,2013-04-20 14:14:00,
2013-04-20 07:20:00,45.6,28.5,30.11,WNW,283,0.0,0.0,51,0.00,,,0.00,Wunderground v.1.15,2013-04-20 14:20:00,
2013-04-20 07:25:00,46.2,28.6,30.11,West,273,0.0,0.0,50,0.00,,,0.00,Wunderground v.1.15,2013-04-20 14:25:00,
2013-04-20 07:31:00,46.8,28.6,30.11,West,277,0.0,0.0,49,0.00,,,0.00,Wunderground v.1.15,2013-04-20 14:31:00,
2013-04-20 07:37:00,47.4,28.7,30.12,NW,305,0.0,0.0,48,0.00,,,0.00,Wunderground v.1.15,2013-04-20 14:37:00,
2013-04-20 07:42:00,47.7,28.4,30.12,WNW,291,0.0,0.0,47,0.00,,,0.00,Wunderground v.1.15,2013-04-20 14:42:00,
2013-04-20 07:48:00,48.1,27.7,30.12,WNW,290,0.0,0.0,45,0.00,,,0.00,Wunderground v.1.15,2013-04-20 14:48:00,
2013-04-20 07:54:00,48.5,27.6,30.12,NW,317,0.0,0.0,44,0.00,,,0.00,Wunderground v.1.15,2013-04-20 14:54:00,
2013-04-20 07:59:00,48.5,27.6,30.12,NW,311,0.0,0.0,44,0.00,,,0.00,Wunderground v.1.15,2013-04-20 14:59:00,
2013-04-20 08:05:00,48.6,27.1,30.12,NNW,328,0.0,0.0,43,0.00,,,0.00,Wunderground v.1.15,2013-04-20 15:05:00,
2013-04-20 08:11:00,48.7,27.2,30.12,WNW,285,0.0,0.0,43,0.00,,,0.00,Wunderground v.1.15,2013-04-20 15:11:00,
2013-04-20 08:17:00,49.0,27.5,30.13,NW,315,0.0,0.0,43,0.00,,,0.00,Wunderground v.1.15,2013-04-20 15:17:00,
2013-04-20 08:22:00,49.1,27.0,30.13,NW,319,0.0,0.0,42,0.00,,,0.00,Wunderground v.1.15,2013-04-20 15:22:00,
2013-04-20 08:28:00,49.6,27.4,30.13,NNW,345,0.0,0.0,42,0.00,,,0.00,Wunderground v.1.15,2013-04-20 15:28:00,
2013-04-20 08:34:00,50.1,27.3,30.12,NW,325,0.0,0.0,41,0.00,,,0.00,Wunderground v.1.15,2013-04-20 15:34:00,
2013-04-20 08:39:00,50.3,27.5,30.12,NW,305,0.0,0.0,41,0.00,,,0.00,Wunderground v.1.15,2013-04-20 15:39:00,
2013-04-20 08:45:00,51.0,26.9,30.13,North,2,0.0,0.0,39,0.00,,,0.00,Wunderground v.1.15,2013-04-20 15:45:00,
2013-04-20 08:51:00,51.2,27.1,30.13,NNE,14,0.0,0.0,39,0.00,,,0.00,Wunderground v.1.15,2013-04-20 15:51:00,
2013-04-20 08:57:00,51.1,26.3,30.13,NNW,344,0.0,0.0,38,0.00,,,0.00,Wunderground v.1.15,2013-04-20 15:57:00,
2013-04-20 09:02:00,51.3,26.5,30.13,NNW,330,0.0,0.0,38,0.00,,,0.00,Wunderground v.1.15,2013-04-20 16:02:00,
2013-04-20 09:08:00,51.5,26.1,30.12,NW,325,0.0,0.0,37,0.00,,,0.00,Wunderground v.1.15,2013-04-20 16:08:00,
2013-04-20 09:14:00,51.7,26.2,30.12,NNW,330,0.0,0.0,37,0.00,,,0.00,Wunderground v.1.15,2013-04-20 16:14:00,
2013-04-20 09:20:00,51.9,26.4,30.12,North,359,0.0,0.0,37,0.00,,,0.00,Wunderground v.1.15,2013-04-20 16:20:00,
2013-04-20 09:26:00,52.5,26.3,30.12,NNE,28,0.0,0.0,36,0.00,,,0.00,Wunderground v.1.15,2013-04-20 16:26:00,
2013-04-20 09:31:00,52.2,26.0,30.12,North,4,0.0,0.0,36,0.00,,,0.00,Wunderground v.1.15,2013-04-20 16:31:00,
2013-04-20 09:37:00,52.1,25.9,30.12,NNW,338,0.0,0.0,36,0.00,,,0.00,Wunderground v.1.15,2013-04-20 16:37:00,
2013-04-20 09:43:00,52.4,26.2,30.12,NNW,332,0.0,0.0,36,0.00,,,0.00,Wunderground v.1.15,2013-04-20 16:43:00,
2013-04-20 09:49:00,53.1,26.8,30.12,WNW,297,0.0,0.0,36,0.00,,,0.00,Wunderground v.1.15,2013-04-20 16:49:00,
2013-04-20 09:55:00,53.4,26.4,30.12,NW,321,0.0,0.0,35,0.00,,,0.00,Wunderground v.1.15,2013-04-20 16:55:00,
2013-04-20 10:00:00,53.2,25.5,30.12,NE,49,0.0,0.0,34,0.00,,,0.00,Wunderground v.1.15,2013-04-20 17:00:00,
2013-04-20 10:06:00,53.2,25.5,30.12,North,11,0.0,0.0,34,0.00,,,0.00,Wunderground v.1.15,2013-04-20 17:06:00,
2013-04-20 10:12:00,53.4,25.7,30.12,NE,48,0.0,0.0,34,0.00,,,0.00,Wunderground v.1.15,2013-04-20 17:12:00,
2013-04-20 10:18:00,52.9,26.0,30.11,NNE,21,0.0,0.0,35,0.00,,,0.00,Wunderground v.1.15,2013-04-20 17:18:00,
2013-04-20 10:23:00,53.6,26.6,30.11,South,188,0.0,0.0,35,0.00,,,0.00,Wunderground v.1.15,2013-04-20 17:23:00,
2013-04-20 10:29:00,54.7,26.1,30.11,North,356,0.0,0.0,33,0.00,,,0.00,Wunderground v.1.15,2013-04-20 17:29:00,
2013-04-20 10:35:00,54.8,26.2,30.11,NNE,24,0.0,0.0,33,0.00,,,0.00,Wunderground v.1.15,2013-04-20 17:35:00,
2013-04-20 10:40:00,54.9,26.3,30.11,NNW,345,0.0,0.0,33,0.00,,,0.00,Wunderground v.1.15,2013-04-20 17:40:00,
2013-04-20 10:46:00,54.1,25.6,30.11,East,91,0.0,0.0,33,0.00,,,0.00,Wunderground v.1.15,2013-04-20 17:46:00,
2013-04-20 10:52:00,54.0,26.2,30.11,ESE,103,0.0,0.0,34,0.00,,,0.00,Wunderground v.1.15,2013-04-20 17:52:00,
2013-04-20 10:58:00,54.3,25.8,30.11,ESE,107,0.0,0.0,33,0.00,,,0.00,Wunderground v.1.15,2013-04-20 17:58:00,
2013-04-20 11:03:00,55.0,26.4,30.11,NW,325,0.0,0.0,33,0.00,,,0.00,Wunderground v.1.15,2013-04-20 18:03:00,
2013-04-20 11:09:00,55.4,26.0,30.10,NNE,13,0.0,0.0,32,0.00,,,0.00,Wunderground v.1.15,2013-04-20 18:09:00,
2013-04-20 11:15:00,55.5,26.1,30.10,South,188,0.0,0.0,32,0.00,,,0.00,Wunderground v.1.15,2013-04-20 18:15:00,
2013-04-20 11:21:00,56.4,26.1,30.10,WNW,288,0.0,0.0,31,0.00,,,0.00,Wunderground v.1.15,2013-04-20 18:21:00,
2013-04-20 11:26:00,56.3,26.0,30.10,WNW,284,0.0,0.0,31,0.00,,,0.00,Wunderground v.1.15,2013-04-20 18:26:00,
2013-04-20 11:32:00,56.5,25.4,30.10,SSW,201,0.0,0.0,30,0.00,,,0.00,Wunderground v.1.15,2013-04-20 18:32:00,
2013-04-20 11:38:00,57.0,25.0,30.10,SW,224,0.0,0.0,29,0.00,,,0.00,Wunderground v.1.15,2013-04-20 18:38:00,
2013-04-20 11:43:00,57.5,25.5,30.10,SW,226,0.0,0.0,29,0.00,,,0.00,Wunderground v.1.15,2013-04-20 18:43:00,
2013-04-20 11:49:00,58.1,26.0,30.10,SE,141,0.0,0.0,29,0.00,,,0.00,Wunderground v.1.15,2013-04-20 18:49:00,
2013-04-20 11:55:00,57.3,26.1,30.09,WNW,297,0.0,0.0,30,0.00,,,0.00,Wunderground v.1.15,2013-04-20 18:55:00,
2013-04-20 12:00:00,57.3,25.3,30.09,West,271,0.0,0.0,29,0.00,,,0.00,Wunderground v.1.15,2013-04-20 19:00:00,
2013-04-20 12:05:00,57.8,25.7,30.09,NNE,14,0.0,0.0,29,0.00,,,0.00,Wunderground v.1.15,2013-04-20 19:05:00,
2013-04-20 12:11:00,57.8,24.9,30.09,NNW,345,0.0,0.0,28,0.00,,,0.00,Wunderground v.1.15,2013-04-20 19:11:00,
2013-04-20 12:17:00,57.9,25.0,30.08,NW,314,0.0,0.0,28,0.00,,,0.00,Wunderground v.1.15,2013-04-20 19:17:00,
2013-04-20 12:22:00,59.1,25.1,30.08,ESE,118,0.0,0.0,27,0.00,,,0.00,Wunderground v.1.15,2013-04-20 19:22:00,
2013-04-20 12:28:00,59.5,24.5,30.07,ENE,65,0.0,0.0,26,0.00,,,0.00,Wunderground v.1.15,2013-04-20 19:28:00,
2013-04-20 12:33:00,59.3,25.3,30.07,SW,224,0.0,0.0,27,0.00,,,0.00,Wunderground v.1.15,2013-04-20 19:33:00,
2013-04-20 12:39:00,58.8,23.9,30.07,NE,44,0.0,0.0,26,0.00,,,0.00,Wunderground v.1.15,2013-04-20 19:39:00,
2013-04-20 12:44:00,59.7,25.6,30.07,SSE,155,0.0,0.0,27,0.00,,,0.00,Wunderground v.1.15,2013-04-20 19:44:00,
2013-04-20 12:50:00,60.8,24.7,30.07,ESE,121,0.0,0.0,25,0.00,,,0.00,Wunderground v.1.15,2013-04-20 19:50:00,
2013-04-20 12:56:00,61.2,24.1,30.07,SW,226,0.0,0.0,24,0.00,,,0.00,Wunderground v.1.15,2013-04-20 19:56:00,
2013-04-20 13:02:00,61.5,24.3,30.07,WSW,250,0.0,0.0,24,0.00,,,0.00,Wunderground v.1.15,2013-04-20 20:02:00,
2013-04-20 13:07:00,61.1,23.0,30.06,WNW,300,0.0,0.0,23,0.00,,,0.00,Wunderground v.1.15,2013-04-20 20:07:00,
2013-04-20 13:13:00,61.8,23.6,30.06,West,278,0.0,0.0,23,0.00,,,0.00,Wunderground v.1.15,2013-04-20 20:13:00,
2013-04-20 13:19:00,61.3,22.1,30.06,NNW,329,0.0,0.0,22,0.00,,,0.00,Wunderground v.1.15,2013-04-20 20:19:00,
2013-04-20 13:25:00,61.0,22.9,30.06,WNW,288,0.0,0.0,23,0.00,,,0.00,Wunderground v.1.15,2013-04-20 20:25:00,
2013-04-20 13:30:00,61.3,22.1,30.05,WNW,295,0.0,0.0,22,0.00,,,0.00,Wunderground v.1.15,2013-04-20 20:30:00,
2013-04-20 13:36:00,61.8,21.4,30.05,WSW,238,0.0,0.0,21,0.00,,,0.00,Wunderground v.1.15,2013-04-20 20:36:00,
2013-04-20 13:42:00,62.2,22.8,30.04,NE,38,0.0,0.0,22,0.00,,,0.00,Wunderground v.1.15,2013-04-20 20:42:00,
2013-04-20 13:47:00,61.8,21.4,30.05,NW,309,0.0,0.0,21,0.00,,,0.00,Wunderground v.1.15,2013-04-20 20:47:00,
2013-04-20 13:53:00,61.5,21.2,30.04,ESE,115,0.0,0.0,21,0.00,,,0.00,Wunderground v.1.15,2013-04-20 20:53:00,
2013-04-20 13:59:00,62.2,20.6,30.04,SSE,164,0.0,0.0,20,0.00,,,0.00,Wunderground v.1.15,2013-04-20 20:59:00,
2013-04-20 14:05:00,62.7,21.0,30.04,East,86,0.0,0.0,20,0.00,,,0.00,Wunderground v.1.15,2013-04-20 21:05:00,
2013-04-20 14:11:00,62.2,20.6,30.03,West,271,0.0,0.0,20,0.00,,,0.00,Wunderground v.1.15,2013-04-20 21:11:00,
2013-04-20 14:16:00,62.9,20.0,30.04,ENE,65,0.0,0.0,19,0.00,,,0.00,Wunderground v.1.15,2013-04-20 21:16:00,
2013-04-20 14:22:00,63.8,19.4,30.03,WSW,239,0.0,0.0,18,0.00,,,0.00,Wunderground v.1.15,2013-04-20 21:22:00,
2013-04-20 14:28:00,64.0,15.4,30.03,NW,311,0.0,0.0,15,0.00,,,0.00,Wunderground v.1.15,2013-04-20 21:28:00,
2013-04-20 14:33:00,64.1,13.9,30.03,West,262,0.0,0.0,14,0.00,,,0.00,Wunderground v.1.15,2013-04-20 21:33:00,
2013-04-20 14:39:00,63.7,15.1,30.03,NW,306,0.0,0.0,15,0.00,,,0.00,Wunderground v.1.15,2013-04-20 21:39:00,
2013-04-20 14:45:00,64.1,15.4,30.02,West,273,0.0,0.0,15,0.00,,,0.00,Wunderground v.1.15,2013-04-20 21:45:00,
2013-04-20 14:51:00,64.2,15.5,30.02,North,9,0.0,0.0,15,0.00,,,0.00,Wunderground v.1.15,2013-04-20 21:51:00,
2013-04-20 14:57:00,64.1,16.9,30.02,SW,229,0.0,0.0,16,0.00,,,0.00,Wunderground v.1.15,2013-04-20 21:57:00,
2013-04-20 15:02:00,64.2,17.0,30.02,WNW,298,0.0,0.0,16,0.00,,,0.00,Wunderground v.1.15,2013-04-20 22:02:00,
2013-04-20 15:08:00,64.6,17.3,30.02,North,7,0.0,0.0,16,0.00,,,0.00,Wunderground v.1.15,2013-04-20 22:08:00,
2013-04-20 15:14:00,63.5,17.8,30.01,NNE,15,0.0,0.0,17,0.00,,,0.00,Wunderground v.1.15,2013-04-20 22:14:00,
2013-04-20 15:20:00,63.4,17.8,30.01,East,82,0.0,0.0,17,0.00,,,0.00,Wunderground v.1.15,2013-04-20 22:20:00,
2013-04-20 15:25:00,64.2,18.4,30.01,West,281,0.0,0.0,17,0.00,,,0.00,Wunderground v.1.15,2013-04-20 22:25:00,
2013-04-20 15:31:00,65.0,17.7,30.01,North,360,0.0,0.0,16,0.00,,,0.00,Wunderground v.1.15,2013-04-20 22:31:00,
2013-04-20 15:37:00,65.9,18.4,30.01,NW,315,0.0,0.0,16,0.00,,,0.00,Wunderground v.1.15,2013-04-20 22:37:00,
2013-04-20 15:43:00,65.8,18.3,30.01,NW,309,0.0,0.0,16,0.00,,,0.00,Wunderground v.1.15,2013-04-20 22:43:00,
2013-04-20 15:49:00,65.5,18.1,30.00,East,97,0.0,0.0,16,0.00,,,0.00,Wunderground v.1.15,2013-04-20 22:49:00,
2013-04-20 15:54:00,65.0,17.7,30.00,ENE,71,0.0,0.0,16,0.00,,,0.00,Wunderground v.1.15,2013-04-20 22:54:00,
2013-04-20 16:00:00,64.7,17.4,30.00,NNE,15,0.0,0.0,16,0.00,,,0.00,Wunderground v.1.15,2013-04-20 23:00:00,
2013-04-20 16:06:00,65.1,17.7,30.00,North,353,0.0,0.0,16,0.00,,,0.00,Wunderground v.1.15,2013-04-20 23:06:00,
2013-04-20 16:12:00,64.7,17.4,30.00,NW,317,0.0,0.0,16,0.00,,,0.00,Wunderground v.1.15,2013-04-20 23:12:00,
2013-04-20 16:17:00,64.9,19.0,30.00,NNE,13,0.0,0.0,17,0.00,,,0.00,Wunderground v.1.15,2013-04-20 23:17:00,
2013-04-20 16:23:00,64.7,18.8,29.99,WNW,294,0.0,0.0,17,0.00,,,0.00,Wunderground v.1.15,2013-04-20 23:23:00,
2013-04-20 16:29:00,65.2,19.2,29.99,WSW,257,0.0,0.0,17,0.00,,,0.00,Wunderground v.1.15,2013-04-20 23:29:00,
2013-04-20 16:35:00,65.6,19.6,29.99,SSW,205,0.0,0.0,17,0.00,,,0.00,Wunderground v.1.15,2013-04-20 23:35:00,
2013-04-20 16:40:00,66.2,18.6,29.99,NNE,32,0.0,0.0,16,0.00,,,0.00,Wunderground v.1.15,2013-04-20 23:40:00,
2013-04-20 16:46:00,65.0,19.1,29.99,ENE,66,0.0,0.0,17,0.00,,,0.00,Wunderground v.1.15,2013-04-20 23:46:00,
2013-04-20 16:52:00,65.1,19.2,29.98,NE,49,0.0,0.0,17,0.00,,,0.00,Wunderground v.1.15,2013-04-20 23:52:00,
2013-04-20 16:58:00,65.5,19.5,29.98,WNW,286,0.0,0.0,17,0.00,,,0.00,Wunderground v.1.15,2013-04-20 23:58:00,
2013-04-20 17:04:00,65.6,19.6,29.98,NW,308,0.0,0.0,17,0.00,,,0.00,Wunderground v.1.15,2013-04-21 00:04:00,
2013-04-20 17:10:00,65.7,19.6,29.98,NE,46,0.0,0.0,17,0.00,,,0.00,Wunderground v.1.15,2013-04-21 00:10:00,
2013-04-20 17:15:00,65.8,19.7,29.98,NW,324,0.0,0.0,17,0.00,,,0.00,Wunderground v.1.15,2013-04-21 00:15:00,
2013-04-20 17:21:00,66.1,18.5,29.98,NNE,14,0.0,0.0,16,0.00,,,0.00,Wunderground v.1.15,2013-04-21 00:21:00,
2013-04-20 17:26:00,66.0,18.5,29.98,NE,49,0.0,0.0,16,0.00,,,0.00,Wunderground v.1.15,2013-04-21 00:26:00,
2013-04-20 17:32:00,65.4,19.4,29.98,NE,42,0.0,0.0,17,0.00,,,0.00,Wunderground v.1.15,2013-04-21 00:32:00,
2013-04-20 17:38:00,65.2,19.2,29.98,ENE,68,0.0,0.0,17,0.00,,,0.00,Wunderground v.1.15,2013-04-21 00:38:00,
2013-04-20 17:44:00,65.3,19.3,29.97,ENE,68,0.0,0.0,17,0.00,,,0.00,Wunderground v.1.15,2013-04-21 00:44:00,
2013-04-20 17:50:00,65.5,19.5,29.97,ENE,60,0.0,0.0,17,0.00,,,0.00,Wunderground v.1.15,2013-04-21 00:50:00,
2013-04-20 17:55:00,65.5,19.5,29.97,North,4,0.0,0.0,17,0.00,,,0.00,Wunderground v.1.15,2013-04-21 00:55:00,
2013-04-20 18:00:00,65.4,19.4,29.97,NE,41,0.0,0.0,17,0.00,,,0.00,Wunderground v.1.15,2013-04-21 01:00:00,
2013-04-20 18:05:00,65.5,19.5,29.97,NNE,18,0.0,0.0,17,0.00,,,0.00,Wunderground v.1.15,2013-04-21 01:05:00,
2013-04-20 18:11:00,65.3,19.3,29.97,NE,39,0.0,0.0,17,0.00,,,0.00,Wunderground v.1.15,2013-04-21 01:11:00,
2013-04-20 18:17:00,65.2,19.2,29.97,NE,49,0.0,0.0,17,0.00,,,0.00,Wunderground v.1.15,2013-04-21 01:17:00,
2013-04-20 18:23:00,65.1,19.2,29.97,ENE,60,0.0,0.0,17,0.00,,,0.00,Wunderground v.1.15,2013-04-21 01:23:00,
2013-04-20 18:28:00,65.1,19.2,29.97,North,354,0.0,0.0,17,0.00,,,0.00,Wunderground v.1.15,2013-04-21 01:28:00,
2013-04-20 18:34:00,65.3,17.9,29.97,NE,42,0.0,0.0,16,0.00,,,0.00,Wunderground v.1.15,2013-04-21 01:34:00,
2013-04-20 18:40:00,65.2,17.8,29.97,NE,44,0.0,0.0,16,0.00,,,0.00,Wunderground v.1.15,2013-04-21 01:40:00,
2013-04-20 18:45:00,65.1,17.7,29.97,NNE,29,0.0,0.0,16,0.00,,,0.00,Wunderground v.1.15,2013-04-21 01:45:00,
2013-04-20 18:51:00,65.0,17.7,29.97,NE,45,0.0,0.0,16,0.00,,,0.00,Wunderground v.1.15,2013-04-21 01:51:00,
2013-04-20 18:57:00,64.9,17.6,29.97,NNE,27,0.0,0.0,16,0.00,,,0.00,Wunderground v.1.15,2013-04-21 01:57:00,
2013-04-20 19:02:00,64.7,17.4,29.97,NNE,24,0.0,0.0,16,0.00,,,0.00,Wunderground v.1.15,2013-04-21 02:02:00,
2013-04-20 19:08:00,64.5,17.3,29.97,NNE,29,0.0,0.0,16,0.00,,,0.00,Wunderground v.1.15,2013-04-21 02:08:00,
2013-04-20 19:14:00,64.1,16.9,29.97,NNE,32,0.0,0.0,16,0.00,,,0.00,Wunderground v.1.15,2013-04-21 02:14:00,
2013-04-20 19:20:00,63.8,16.7,29.97,NNE,31,0.0,0.0,16,0.00,,,0.00,Wunderground v.1.15,2013-04-21 02:20:00,
2013-04-20 19:26:00,63.4,17.8,29.97,NNE,25,0.0,0.0,17,0.00,,,0.00,Wunderground v.1.15,2013-04-21 02:26:00,
2013-04-20 19:31:00,62.9,17.4,29.97,NNE,28,0.0,0.0,17,0.00,,,0.00,Wunderground v.1.15,2013-04-21 02:31:00,
2013-04-20 19:37:00,62.0,16.6,29.98,NE,51,0.0,0.0,17,0.00,,,0.00,Wunderground v.1.15,2013-04-21 02:37:00,
2013-04-20 19:43:00,61.2,17.3,29.98,NE,49,0.0,0.0,18,0.00,,,0.00,Wunderground v.1.15,2013-04-21 02:43:00,
2013-04-20 19:48:00,60.8,17.0,29.98,NE,46,0.0,1.0,18,0.00,,,0.00,Wunderground v.1.15,2013-04-21 02:48:00,
2013-04-20 19:54:00,60.4,16.6,29.98,NE,46,1.0,2.0,18,0.00,,,0.00,Wunderground v.1.15,2013-04-21 02:54:00,
2013-04-20 20:00:00,60.2,17.7,29.99,East,92,1.0,2.0,19,0.00,,,0.00,Wunderground v.1.15,2013-04-21 03:00:00,
2013-04-20 20:06:00,59.6,17.2,29.99,East,98,2.0,4.0,19,0.00,,,0.00,Wunderground v.1.15,2013-04-21 03:06:00,
2013-04-20 20:11:00,58.5,16.3,29.99,East,97,2.0,2.0,19,0.00,,,0.00,Wunderground v.1.15,2013-04-21 03:11:00,
2013-04-20 20:17:00,57.8,16.9,29.99,ENE,77,2.0,3.0,20,0.00,,,0.00,Wunderground v.1.15,2013-04-21 03:17:00,
2013-04-20 20:23:00,57.4,16.6,30.00,East,96,2.0,2.0,20,0.00,,,0.00,Wunderground v.1.15,2013-04-21 03:23:00,
2013-04-20 20:29:00,57.4,16.6,30.00,East,97,2.0,2.0,20,0.00,,,0.00,Wunderground v.1.15,2013-04-21 03:29:00,
2013-04-20 20:34:00,57.3,17.6,30.00,East,97,2.0,2.0,21,0.00,,,0.00,Wunderground v.1.15,2013-04-21 03:34:00,
2013-04-20 20:40:00,57.4,16.6,30.00,ESE,105,1.0,1.0,20,0.00,,,0.00,Wunderground v.1.15,2013-04-21 03:40:00,
2013-04-20 20:45:00,57.4,17.7,30.00,ESE,110,0.0,1.0,21,0.00,,,0.00,Wunderground v.1.15,2013-04-21 03:45:00,
2013-04-20 20:51:00,57.5,17.8,30.01,ESE,110,1.0,1.0,21,0.00,,,0.00,Wunderground v.1.15,2013-04-21 03:51:00,
2013-04-20 20:57:00,57.3,17.6,30.01,ESE,110,1.0,1.0,21,0.00,,,0.00,Wunderground v.1.15,2013-04-21 03:57:00,
2013-04-20 21:01:00,57.2,17.6,30.01,ESE,110,0.0,0.0,21,0.00,,,0.00,Wunderground v.1.15,2013-04-21 04:01:00,
2013-04-20 21:02:00,57.2,17.6,30.01,ESE,110,0.0,0.0,21,0.00,,,0.00,Wunderground v.1.15,2013-04-21 04:02:00,
2013-04-20 21:03:00,57.2,17.6,30.01,ESE,110,0.0,0.0,21,0.00,,,0.00,Wunderground v.1.15,2013-04-21 04:03:00,
2013-04-20 21:05:00,57.1,17.5,30.01,ESE,110,0.0,0.0,21,0.00,,,0.00,Wunderground v.1.15,2013-04-21 04:05:00,
2013-04-20 21:08:00,56.9,17.3,30.01,ESE,110,0.0,0.0,21,0.00,,,0.00,Wunderground v.1.15,2013-04-21 04:08:00,
2013-04-20 21:14:00,56.6,18.1,30.02,ESE,110,0.0,0.0,22,0.00,,,0.00,Wunderground v.1.15,2013-04-21 04:14:00,
2013-04-20 21:20:00,56.5,18.1,30.02,ESE,110,0.0,0.0,22,0.00,,,0.00,Wunderground v.1.15,2013-04-21 04:20:00,
2013-04-20 21:26:00,56.5,18.1,30.02,ESE,109,0.0,0.0,22,0.00,,,0.00,Wunderground v.1.15,2013-04-21 04:26:00,
2013-04-20 21:32:00,55.7,16.3,30.02,WNW,285,0.0,0.0,21,0.00,,,0.00,Wunderground v.1.15,2013-04-21 04:32:00,
2013-04-20 21:38:00,54.3,17.2,30.03,West,269,0.0,0.0,23,0.00,,,0.00,Wunderground v.1.15,2013-04-21 04:38:00,
2013-04-20 21:43:00,53.8,16.8,30.03,WSW,257,0.0,0.0,23,0.00,,,0.00,Wunderground v.1.15,2013-04-21 04:43:00,
2013-04-20 21:49:00,52.3,16.5,30.03,SW,231,0.0,0.0,24,0.00,,,0.00,Wunderground v.1.15,2013-04-21 04:49:00,
2013-04-20 21:55:00,52.9,18.9,30.03,WSW,251,0.0,0.0,26,0.00,,,0.00,Wunderground v.1.15,2013-04-21 04:55:00,
2013-04-20 22:00:00,53.2,18.2,30.03,WSW,252,0.0,0.0,25,0.00,,,0.00,Wunderground v.1.15,2013-04-21 05:00:00,
2013-04-20 22:06:00,53.2,18.2,30.03,SW,235,0.0,0.0,25,0.00,,,0.00,Wunderground v.1.15,2013-04-21 05:06:00,
2013-04-20 22:12:00,53.4,18.4,30.03,SW,226,0.0,0.0,25,0.00,,,0.00,Wunderground v.1.15,2013-04-21 05:12:00,
2013-04-20 22:17:00,53.6,18.6,30.03,SW,227,0.0,0.0,25,0.00,,,0.00,Wunderground v.1.15,2013-04-21 05:17:00,
2013-04-20 22:23:00,54.5,19.3,30.04,SW,227,0.0,0.0,25,0.00,,,0.00,Wunderground v.1.15,2013-04-21 05:23:00,
2013-04-20 22:29:00,55.1,18.9,30.03,SW,227,0.0,0.0,24,0.00,,,0.00,Wunderground v.1.15,2013-04-21 05:29:00,
2013-04-20 22:35:00,55.5,19.2,30.03,SW,231,0.0,0.0,24,0.00,,,0.00,Wunderground v.1.15,2013-04-21 05:35:00,
2013-04-20 22:41:00,55.8,18.5,30.03,WSW,249,0.0,0.0,23,0.00,,,0.00,Wunderground v.1.15,2013-04-21 05:41:00,
2013-04-20 22:46:00,53.6,17.6,30.03,WSW,250,0.0,0.0,24,0.00,,,0.00,Wunderground v.1.15,2013-04-21 05:46:00,
2013-04-20 22:52:00,52.1,18.2,30.03,SW,221,0.0,0.0,26,0.00,,,0.00,Wunderground v.1.15,2013-04-21 05:52:00,
2013-04-20 22:57:00,51.6,16.9,30.03,WSW,253,0.0,0.0,25,0.00,,,0.00,Wunderground v.1.15,2013-04-21 05:57:00,
2013-04-20 23:03:00,50.5,17.7,30.03,WSW,255,0.0,0.0,27,0.00,,,0.00,Wunderground v.1.15,2013-04-21 06:03:00,
2013-04-20 23:09:00,49.6,17.8,30.03,WSW,243,0.0,0.0,28,0.00,,,0.00,Wunderground v.1.15,2013-04-21 06:09:00,
2013-04-20 23:15:00,49.7,21.0,30.03,SW,231,0.0,0.0,32,0.00,,,0.00,Wunderground v.1.15,2013-04-21 06:15:00,
2013-04-20 23:20:00,49.8,22.5,30.03,WSW,237,0.0,0.0,34,0.00,,,0.00,Wunderground v.1.15,2013-04-21 06:20:00,
2013-04-20 23:26:00,50.1,24.2,30.03,WSW,241,0.0,0.0,36,0.00,,,0.00,Wunderground v.1.15,2013-04-21 06:26:00,
2013-04-20 23:32:00,50.1,24.8,30.03,SW,227,0.0,0.0,37,0.00,,,0.00,Wunderground v.1.15,2013-04-21 06:32:00,
2013-04-20 23:38:00,49.5,25.5,30.03,SW,217,0.0,0.0,39,0.00,,,0.00,Wunderground v.1.15,2013-04-21 06:38:00,
2013-04-20 23:44:00,48.8,24.3,30.03,South,191,0.0,0.0,38,0.00,,,0.00,Wunderground v.1.15,2013-04-21 06:44:00,
2013-04-20 23:49:00,48.5,24.6,30.03,SW,231,0.0,0.0,39,0.00,,,0.00,Wunderground v.1.15,2013-04-21 06:49:00,
2013-04-20 23:55:00,49.1,25.2,30.03,WSW,250,0.0,0.0,39,0.00,,,0.00,Wunderground v.1.15,2013-04-21 06:55:00,